Akra, North Dakota
Current Conditions -  °F | °C
As of 5:15 AM on Friday 28 Nov 2014 (Local Time) from K2C8 Reporting Station
Light Snow Light Snow  
Wind Chill: -17°   Ceiling: 1000
Heat Index: -12°   Visibility: 6mi
Dew Point: -14°   Wind: 6mph
Humidity: 85%   Direction: 130°SE
Pressure: 30.02"   Gusts: NA
Location:  48.8218°N, 97.697°W
Report Text: K2C8 281115Z AUTO 13005KT 6SM -SN SCT002 BKN010 OVC041 M12/M14 A3002 RMK AO2
Loading
Personal Weather Stations






























Interactive Weather Map New forecast layout! Learn more

10-Day Weather Forecast

Advertisements
Track Severe Weather on mobile